createdAt,value
2022-11-28T00:01:43.735Z,7.13
2022-11-28T00:04:10.920Z,7.97
2022-11-28T00:06:39.451Z,6.38
2022-11-28T00:11:33.104Z,10.48
2022-11-28T00:13:59.890Z,6.18
2022-11-28T00:16:26.425Z,7.20
2022-11-28T00:18:54.481Z,5.88
2022-11-28T00:21:21.868Z,7.68
2022-11-28T00:23:48.940Z,6.15
2022-11-28T00:26:22.439Z,8.05
2022-11-28T00:28:50.509Z,4.82
2022-11-28T00:31:20.579Z,6.00
2022-11-28T00:33:47.472Z,9.40
2022-11-28T00:36:14.402Z,8.05
2022-11-28T00:38:41.762Z,7.03
2022-11-28T00:41:11.189Z,7.65
2022-11-28T00:43:38.003Z,6.00
2022-11-28T00:46:04.763Z,5.93
2022-11-28T00:48:32.920Z,6.10
2022-11-28T00:51:10.236Z,6.22
2022-11-28T00:53:37.186Z,9.10
2022-11-28T00:56:05.623Z,7.68
2022-11-28T00:58:33.376Z,6.10
2022-11-28T01:01:00.309Z,8.45
2022-11-28T01:03:26.921Z,6.57
2022-11-28T01:05:53.401Z,5.72
2022-11-28T01:08:19.903Z,7.28
2022-11-28T01:10:46.427Z,7.93
2022-11-28T01:13:12.971Z,6.68
2022-11-28T01:15:42.946Z,6.78
2022-11-28T01:18:09.845Z,8.48
2022-11-28T01:20:36.696Z,6.85
2022-11-28T01:23:03.812Z,7.30
2022-11-28T01:25:30.511Z,6.07
2022-11-28T01:27:57.064Z,8.88
2022-11-28T01:30:23.587Z,7.55
2022-11-28T01:32:50.250Z,7.80
2022-11-28T01:35:16.800Z,7.95
2022-11-28T01:37:43.357Z,6.13
2022-11-28T01:40:11.778Z,5.68
2022-11-28T01:45:22.993Z,6.85
2022-11-28T01:47:51.557Z,7.07
2022-11-28T01:50:18.844Z,6.70
2022-11-28T01:52:48.146Z,7.80
2022-11-28T01:55:17.285Z,7.80
2022-11-28T01:57:43.953Z,7.65
2022-11-28T02:00:14.276Z,4.97
2022-11-28T02:02:50.478Z,7.25
2022-11-28T02:05:19.683Z,7.50
2022-11-28T02:07:47.505Z,6.43
2022-11-28T02:10:23.753Z,9.02
2022-11-28T02:13:28.522Z,5.80
2022-11-28T02:16:01.056Z,6.28
2022-11-28T02:18:50.716Z,5.68
2022-11-28T02:21:29.356Z,8.05
2022-11-28T02:24:29.979Z,7.25
2022-11-28T02:30:06.552Z,9.55
2022-11-28T02:32:46.098Z,7.05
2022-11-28T02:35:41.523Z,6.18
2022-11-28T02:38:45.563Z,9.77
2022-11-28T02:41:24.295Z,6.93
2022-11-28T02:44:05.828Z,7.18
2022-11-28T02:46:41.589Z,7.60
2022-11-28T02:49:12.823Z,7.93
2022-11-28T02:51:46.316Z,6.97
2022-11-28T02:54:15.520Z,6.18
2022-11-28T02:56:50.575Z,8.20
2022-11-28T02:59:46.165Z,7.55
2022-11-28T03:02:30.324Z,10.52
2022-11-28T03:05:08.212Z,8.18
2022-11-28T03:07:58.255Z,7.72
2022-11-28T03:10:30.653Z,5.85
2022-11-28T03:13:19.132Z,7.18
2022-11-28T03:16:22.842Z,6.55
2022-11-28T03:18:58.232Z,6.32
2022-11-28T03:21:36.913Z,4.97
2022-11-28T03:24:15.577Z,7.07
2022-11-28T03:26:51.507Z,6.93
2022-11-28T03:29:44.271Z,6.72
2022-11-28T03:32:14.792Z,7.78
2022-11-28T03:34:46.361Z,5.88
2022-11-28T03:37:20.480Z,7.22
2022-11-28T03:39:50.533Z,6.60
2022-11-28T03:42:21.236Z,5.88
2022-11-28T03:45:00.379Z,7.18
2022-11-28T03:47:31.155Z,6.88
2022-11-28T03:50:02.751Z,7.95
2022-11-28T03:52:32.820Z,7.85
2022-11-28T03:55:03.745Z,6.65
2022-11-28T03:57:41.801Z,6.35
2022-11-28T04:00:10.741Z,7.97
2022-11-28T04:02:53.014Z,7.78
2022-11-28T04:05:42.160Z,7.47
2022-11-28T04:08:18.310Z,6.20
2022-11-28T04:10:59.699Z,7.97
2022-11-28T04:15:59.901Z,6.72
2022-11-28T04:19:01.378Z,7.80
2022-11-28T04:21:35.169Z,5.38
2022-11-28T04:24:06.016Z,7.90
2022-11-28T04:26:35.748Z,6.20
2022-11-28T04:29:05.104Z,8.32
2022-11-28T04:31:32.475Z,6.90
2022-11-28T04:34:02.827Z,5.50
2022-11-28T04:36:30.692Z,7.07
2022-11-28T04:38:57.552Z,9.27
2022-11-28T04:41:33.707Z,6.78
2022-11-28T04:44:05.077Z,8.52
2022-11-28T04:46:37.728Z,8.18
2022-11-28T04:49:04.203Z,7.43
2022-11-28T04:51:44.413Z,6.40
2022-11-28T04:54:23.054Z,5.78
2022-11-28T04:56:59.146Z,7.25
2022-11-28T04:59:26.857Z,7.88
2022-11-28T05:01:54.115Z,7.32
2022-11-28T05:04:20.695Z,7.80
2022-11-28T05:06:47.875Z,8.13
2022-11-28T05:09:14.497Z,4.38
2022-11-28T05:11:41.052Z,9.38
2022-11-28T05:14:07.885Z,8.18
2022-11-28T05:16:35.139Z,8.02
2022-11-28T05:19:01.740Z,7.95
2022-11-28T05:21:28.303Z,5.70
2022-11-28T05:23:54.823Z,7.35
2022-11-28T05:26:21.501Z,5.38
2022-11-28T05:28:50.094Z,6.90
2022-11-28T05:31:18.424Z,7.32
2022-11-28T05:33:45.057Z,7.13
2022-11-28T05:36:13.781Z,6.22
2022-11-28T05:38:41.546Z,5.47
2022-11-28T05:41:08.721Z,7.95
2022-11-28T05:43:35.476Z,5.75
2022-11-28T05:46:05.684Z,5.57
2022-11-28T05:48:32.406Z,8.02
2022-11-28T05:50:59.033Z,6.65
2022-11-28T05:53:25.861Z,6.25
2022-11-28T05:55:52.362Z,6.00
2022-11-28T05:58:18.892Z,7.07
2022-11-28T06:00:45.469Z,6.40
2022-11-28T06:03:12.061Z,6.63
2022-11-28T06:05:43.206Z,6.78
2022-11-28T06:08:12.251Z,8.10
2022-11-28T06:10:39.004Z,5.88
2022-11-28T06:13:05.756Z,6.25
2022-11-28T06:15:37.556Z,8.50
2022-11-28T06:18:05.098Z,7.93
2022-11-28T06:20:31.651Z,7.47
2022-11-28T06:22:58.208Z,8.70
2022-11-28T06:25:24.897Z,5.68
2022-11-28T06:27:51.440Z,6.85
2022-11-28T06:30:17.996Z,8.20
2022-11-28T06:32:44.571Z,7.47
2022-11-28T06:35:11.165Z,8.35
2022-11-28T06:37:37.888Z,7.80
2022-11-28T06:40:05.360Z,6.60
2022-11-28T06:42:31.905Z,7.38
2022-11-28T06:44:58.392Z,6.13
2022-11-28T06:47:24.864Z,8.85
2022-11-28T06:49:51.416Z,5.05
2022-11-28T06:52:17.939Z,9.52
2022-11-28T06:54:44.632Z,8.15
2022-11-28T06:57:11.277Z,6.53
2022-11-28T06:59:37.832Z,7.82
2022-11-28T07:02:07.784Z,6.35
2022-11-28T07:04:34.918Z,7.53
2022-11-28T07:07:01.788Z,6.60
2022-11-28T07:09:28.534Z,6.60
2022-11-28T07:11:55.372Z,7.38
2022-11-28T07:14:21.984Z,6.28
2022-11-28T07:16:49.200Z,8.95
2022-11-28T07:19:16.495Z,7.30
2022-11-28T07:21:43.027Z,7.45
2022-11-28T07:24:09.584Z,7.38
2022-11-28T07:26:38.045Z,8.82
2022-11-28T07:29:06.883Z,7.43
2022-11-28T07:31:33.886Z,9.20
2022-11-28T07:34:03.283Z,7.75
2022-11-28T07:36:30.462Z,10.38
2022-11-28T07:39:01.389Z,8.45
2022-11-28T07:41:28.378Z,8.65
2022-11-28T07:43:57.048Z,7.03
2022-11-28T07:46:24.596Z,6.25
2022-11-28T07:48:51.464Z,7.65
2022-11-28T07:51:23.782Z,9.15
2022-11-28T07:53:50.752Z,7.35
2022-11-28T07:56:22.359Z,8.75
2022-11-28T07:58:49.550Z,7.45
2022-11-28T08:01:18.720Z,7.65
2022-11-28T08:03:45.740Z,6.28
2022-11-28T08:06:13.076Z,8.02
2022-11-28T08:08:39.744Z,8.35
2022-11-28T08:11:07.929Z,7.63
2022-11-28T08:13:35.890Z,8.70
2022-11-28T08:16:11.175Z,11.18
2022-11-28T08:18:37.736Z,6.25
2022-11-28T08:21:05.848Z,7.90
2022-11-28T08:23:35.800Z,10.07
2022-11-28T08:26:03.486Z,8.00
2022-11-28T08:28:30.119Z,7.10
2022-11-28T08:30:57.040Z,8.45
2022-11-28T08:33:24.642Z,6.85
2022-11-28T08:35:54.262Z,8.95
2022-11-28T08:38:20.824Z,6.60
2022-11-28T08:40:47.527Z,6.78
2022-11-28T08:43:14.543Z,7.53
2022-11-28T08:45:41.119Z,6.68
2022-11-28T08:48:07.731Z,7.38
2022-11-28T08:50:34.268Z,7.70
2022-11-28T08:53:07.696Z,9.73
2022-11-28T08:55:39.153Z,6.53
2022-11-28T08:58:08.663Z,9.00
2022-11-28T09:00:35.299Z,7.50
2022-11-28T09:03:01.823Z,6.22
2022-11-28T09:05:29.376Z,8.00
2022-11-28T09:07:56.145Z,8.02
2022-11-28T09:10:23.562Z,7.35
2022-11-28T09:12:50.384Z,9.20
2022-11-28T09:15:18.947Z,9.07
2022-11-28T09:17:46.304Z,8.15
2022-11-28T09:20:13.140Z,7.90
2022-11-28T09:22:40.652Z,6.68
2022-11-28T09:25:07.876Z,6.88
2022-11-28T09:27:34.476Z,7.43
2022-11-28T09:30:01.005Z,7.95
2022-11-28T09:32:27.506Z,9.25
2022-11-28T09:34:53.992Z,14.88
2022-11-28T09:37:20.563Z,6.03
2022-11-28T09:40:11.602Z,7.38
2022-11-28T09:42:39.571Z,9.77
2022-11-28T09:45:11.025Z,8.05
2022-11-28T09:47:38.248Z,9.52
2022-11-28T09:50:10.765Z,8.40
2022-11-28T09:52:46.522Z,8.57
2022-11-28T09:55:18.760Z,7.65
2022-11-28T09:57:50.543Z,7.35
2022-11-28T10:00:32.383Z,9.23
2022-11-28T10:03:07.486Z,6.43
2022-11-28T10:06:07.447Z,7.03
2022-11-28T10:08:39.465Z,5.95
2022-11-28T10:11:25.651Z,7.25
2022-11-28T10:14:08.268Z,7.15
2022-11-28T10:17:20.188Z,5.13
2022-11-28T10:19:54.840Z,6.60
2022-11-28T10:22:29.773Z,7.63
2022-11-28T10:24:58.115Z,6.97
2022-11-28T10:27:33.162Z,6.93
2022-11-28T10:30:08.341Z,8.40
2022-11-28T10:32:38.397Z,6.85
2022-11-28T10:35:28.494Z,7.53
2022-11-28T10:37:55.787Z,7.40
2022-11-28T10:40:31.259Z,7.50
2022-11-28T10:43:17.201Z,7.63
2022-11-28T10:45:51.466Z,7.47
2022-11-28T10:48:40.661Z,7.78
2022-11-28T10:51:16.322Z,7.70
2022-11-28T10:53:51.807Z,8.35
2022-11-28T10:56:27.725Z,6.28
2022-11-28T10:58:58.795Z,6.75
2022-11-28T11:01:29.836Z,7.00
2022-11-28T11:03:56.403Z,6.57
2022-11-28T11:06:32.668Z,9.18
2022-11-28T11:09:09.448Z,6.57
2022-11-28T11:11:41.991Z,6.13
2022-11-28T11:14:11.279Z,6.68
2022-11-28T11:16:46.775Z,6.78
2022-11-28T11:19:31.514Z,8.48
2022-11-28T11:22:10.797Z,6.45
2022-11-28T11:24:37.323Z,6.15
2022-11-28T11:27:17.575Z,6.53
2022-11-28T11:29:45.650Z,5.80
2022-11-28T11:32:23.848Z,7.30
2022-11-28T11:34:50.665Z,8.73
2022-11-28T11:37:37.745Z,8.85
2022-11-28T11:40:19.120Z,10.23
2022-11-28T11:42:52.974Z,9.32
2022-11-28T11:45:31.411Z,8.88
2022-11-28T11:47:58.100Z,7.40
2022-11-28T11:50:27.109Z,8.70
2022-11-28T11:53:12.362Z,7.63
2022-11-28T11:55:56.049Z,9.90
2022-11-28T11:58:26.720Z,7.75
2022-11-28T12:00:55.896Z,7.35
2022-11-28T12:03:56.080Z,7.63
2022-11-28T12:06:29.543Z,7.00
2022-11-28T12:09:09.189Z,9.73
2022-11-28T12:11:45.495Z,6.35
2022-11-28T12:14:34.443Z,8.40
2022-11-28T12:17:40.546Z,6.82
2022-11-28T12:20:26.065Z,7.32
2022-11-28T12:23:04.711Z,7.35
2022-11-28T12:25:51.944Z,7.25
2022-11-28T12:28:21.280Z,7.55
2022-11-28T12:31:03.167Z,7.88
2022-11-28T12:34:19.231Z,8.18
2022-11-28T12:37:09.885Z,11.88
2022-11-28T12:39:47.052Z,7.55
2022-11-28T12:42:19.700Z,8.70
2022-11-28T12:45:14.826Z,9.68
2022-11-28T12:47:53.566Z,8.60
2022-11-28T12:50:38.490Z,8.55
2022-11-28T12:53:40.428Z,10.25
2022-11-28T12:56:28.624Z,7.95
2022-11-28T12:58:59.767Z,8.75
2022-11-28T13:01:51.205Z,7.60
2022-11-28T13:05:01.504Z,7.05
2022-11-28T13:07:41.293Z,11.70
2022-11-28T13:10:31.807Z,12.82
2022-11-28T13:13:02.541Z,8.07
2022-11-28T13:15:54.178Z,7.90
2022-11-28T13:18:29.728Z,9.20
2022-11-28T13:21:06.889Z,9.20
2022-11-28T13:23:48.699Z,7.18
2022-11-28T13:26:28.048Z,8.65
2022-11-28T13:29:21.990Z,7.28
2022-11-28T13:31:48.488Z,6.57
2022-11-28T13:34:16.681Z,8.65
2022-11-28T13:40:01.562Z,8.63
2022-11-28T13:45:35.472Z,6.72
2022-11-28T13:49:12.626Z,7.22
2022-11-28T13:51:33.248Z,7.72
2022-11-28T13:54:21.498Z,5.45
2022-11-28T13:57:10.973Z,7.75
2022-11-28T13:59:38.175Z,7.88
2022-11-28T14:02:21.310Z,8.95
2022-11-28T14:04:48.579Z,6.53
2022-11-28T14:07:27.456Z,7.55
2022-11-28T14:10:12.869Z,5.88
2022-11-28T14:12:52.264Z,5.60
2022-11-28T14:15:31.783Z,8.90
2022-11-28T14:21:05.673Z,5.55
2022-11-28T14:23:45.916Z,6.78
2022-11-28T14:26:43.116Z,8.07
2022-11-28T14:29:31.027Z,4.88
2022-11-28T14:32:29.747Z,5.57
2022-11-28T14:34:48.069Z,7.32
2022-11-28T14:37:21.332Z,8.73
2022-11-28T14:39:49.476Z,5.97
2022-11-28T14:42:36.956Z,6.22
2022-11-28T14:45:22.194Z,6.88
2022-11-28T14:48:24.243Z,7.53
2022-11-28T14:50:59.276Z,8.20
2022-11-28T14:53:34.648Z,5.35
2022-11-28T14:56:16.142Z,7.70
2022-11-28T14:58:50.228Z,9.05
2022-11-28T15:01:44.041Z,5.97
2022-11-28T15:04:33.243Z,5.45
2022-11-28T15:07:00.573Z,7.13
2022-11-28T15:09:35.159Z,5.72
2022-11-28T15:12:26.595Z,5.65
2022-11-28T15:14:57.744Z,7.18
2022-11-28T15:17:30.601Z,6.03
2022-11-28T15:19:59.284Z,6.60
2022-11-28T15:25:29.172Z,8.05
2022-11-28T15:27:57.919Z,4.13
2022-11-28T15:30:28.930Z,8.20
2022-11-28T15:32:58.972Z,7.38
2022-11-28T15:35:26.376Z,5.30
2022-11-28T15:37:57.969Z,6.47
2022-11-28T15:40:35.790Z,5.57
2022-11-28T15:43:08.097Z,7.68
2022-11-28T15:45:42.166Z,14.27
2022-11-28T15:48:26.309Z,20.50
2022-11-28T15:50:53.090Z,19.13
2022-11-28T15:53:21.100Z,23.40
2022-11-28T15:55:47.769Z,23.83
2022-11-28T15:58:23.382Z,19.48
2022-11-28T16:01:01.711Z,31.25
2022-11-28T16:03:31.421Z,25.08
2022-11-28T16:05:58.575Z,25.70
2022-11-28T16:08:29.010Z,15.63
2022-11-28T16:10:56.677Z,19.15
2022-11-28T16:13:24.836Z,19.65
2022-11-28T16:15:54.069Z,19.38
2022-11-28T16:18:20.868Z,23.88
2022-11-28T16:20:47.715Z,27.15
2022-11-28T16:23:20.464Z,21.55
2022-11-28T16:26:05.357Z,30.50
2022-11-28T16:28:37.571Z,27.25
2022-11-28T16:31:21.460Z,19.17
2022-11-28T16:33:49.572Z,21.65
2022-11-28T16:36:16.085Z,23.10
2022-11-28T16:38:43.691Z,16.85
2022-11-28T16:41:25.451Z,27.55
2022-11-28T16:43:58.534Z,18.23
2022-11-28T16:46:28.330Z,21.50
2022-11-28T16:48:59.038Z,18.58
2022-11-28T16:51:25.500Z,17.88
2022-11-28T16:53:58.687Z,18.00
2022-11-28T16:56:31.305Z,20.27
2022-11-28T16:59:01.999Z,16.83
2022-11-28T17:01:29.270Z,19.80
2022-11-28T17:03:57.595Z,17.73
2022-11-28T17:06:28.566Z,20.08
2022-11-28T17:08:56.216Z,20.52
2022-11-28T17:11:26.183Z,16.05
2022-11-28T17:13:56.143Z,16.77
2022-11-28T17:16:25.047Z,21.05
2022-11-28T17:18:51.953Z,18.70
2022-11-28T17:21:28.058Z,18.13
2022-11-28T17:23:55.211Z,16.88
2022-11-28T17:26:21.753Z,20.52
2022-11-28T17:28:48.464Z,19.63
2022-11-28T17:31:15.385Z,25.23
2022-11-28T17:33:44.856Z,16.58
2022-11-28T17:36:12.699Z,16.27
2022-11-28T17:38:51.016Z,17.30
2022-11-28T17:41:18.368Z,15.40
2022-11-28T17:43:45.059Z,14.77
2022-11-28T17:46:11.807Z,17.38
2022-11-28T17:48:38.791Z,15.75
2022-11-28T17:51:06.083Z,14.90
2022-11-28T17:53:32.768Z,14.35
2022-11-28T17:56:00.634Z,12.45
2022-11-28T17:58:28.667Z,12.32
2022-11-28T18:01:00.547Z,14.52
2022-11-28T18:03:28.357Z,15.63
2022-11-28T18:05:55.555Z,13.10
2022-11-28T18:08:22.846Z,14.88
2022-11-28T18:10:51.751Z,17.88
2022-11-28T18:13:18.650Z,10.77
2022-11-28T18:15:48.033Z,13.57
2022-11-28T18:18:15.127Z,14.40
2022-11-28T18:20:42.262Z,20.48
2022-11-28T18:23:10.565Z,15.38
2022-11-28T18:25:41.405Z,16.33
2022-11-28T18:28:13.287Z,12.52
2022-11-28T18:30:45.375Z,13.57
2022-11-28T18:33:13.086Z,10.68
2022-11-28T18:35:40.259Z,12.93
2022-11-28T18:38:07.741Z,17.10
2022-11-28T18:40:35.985Z,14.55
2022-11-28T18:43:04.153Z,11.40
2022-11-28T18:45:31.489Z,11.95
2022-11-28T18:48:00.578Z,12.00
2022-11-28T18:50:30.303Z,11.38
2022-11-28T18:52:57.446Z,15.38
2022-11-28T18:55:25.072Z,11.55
2022-11-28T18:57:51.678Z,13.68
2022-11-28T19:00:21.507Z,11.00
2022-11-28T19:02:48.674Z,11.73
2022-11-28T19:05:15.515Z,12.38
2022-11-28T19:07:42.804Z,9.98
2022-11-28T19:10:10.119Z,10.55
2022-11-28T19:12:37.268Z,16.42
2022-11-28T19:15:04.201Z,12.40
2022-11-28T19:17:30.887Z,16.10
2022-11-28T19:19:57.666Z,11.02
2022-11-28T19:22:24.299Z,12.73
2022-11-28T19:24:51.291Z,17.10
2022-11-28T19:27:17.986Z,11.27
2022-11-28T19:29:45.017Z,13.20
2022-11-28T19:32:12.662Z,12.40
2022-11-28T19:34:39.489Z,13.00
2022-11-28T19:37:06.298Z,10.98
2022-11-28T19:39:33.032Z,10.57
2022-11-28T19:42:00.014Z,10.52
2022-11-28T19:44:29.296Z,14.27
2022-11-28T19:49:24.257Z,13.18
2022-11-28T19:51:51.286Z,13.20
2022-11-28T19:54:23.190Z,8.88
2022-11-28T19:56:54.562Z,10.90
2022-11-28T19:59:21.531Z,10.23
2022-11-28T20:01:50.113Z,9.55
2022-11-28T20:04:17.078Z,13.07
2022-11-28T20:06:43.780Z,8.48
2022-11-28T20:09:11.530Z,15.02
2022-11-28T20:11:43.061Z,10.07
2022-11-28T20:14:15.538Z,9.75
2022-11-28T20:16:43.506Z,9.00
2022-11-28T20:19:12.141Z,10.40
2022-11-28T20:21:41.716Z,10.85
2022-11-28T20:24:13.013Z,13.43
2022-11-28T20:26:42.701Z,15.75
2022-11-28T20:29:16.937Z,8.77
2022-11-28T20:31:52.771Z,8.93
2022-11-28T20:34:20.193Z,10.00
2022-11-28T20:36:55.038Z,12.05
2022-11-28T20:39:24.141Z,11.35
2022-11-28T20:41:52.170Z,9.45
2022-11-28T20:44:24.679Z,10.05
2022-11-28T20:46:52.445Z,9.65
2022-11-28T20:49:19.598Z,10.25
2022-11-28T20:51:47.597Z,10.63
2022-11-28T20:54:15.844Z,9.13
2022-11-28T20:59:31.701Z,12.85
2022-11-28T21:01:59.396Z,9.63
2022-11-28T21:04:30.942Z,9.02
2022-11-28T21:06:58.150Z,11.48
2022-11-28T21:09:25.252Z,9.02
2022-11-28T21:11:57.883Z,8.52
2022-11-28T21:14:28.401Z,8.30
2022-11-28T21:16:56.705Z,8.02
2022-11-28T21:19:25.682Z,10.60
2022-11-28T21:21:54.179Z,9.80
2022-11-28T21:24:21.504Z,11.57
2022-11-28T21:26:53.450Z,9.60
2022-11-28T21:29:25.537Z,9.38
2022-11-28T21:31:56.258Z,8.05
2022-11-28T21:34:23.629Z,8.40
2022-11-28T21:36:52.066Z,8.73
2022-11-28T21:39:25.127Z,9.32
2022-11-28T21:41:52.551Z,7.78
2022-11-28T21:44:20.376Z,7.82
2022-11-28T21:46:50.141Z,8.25
2022-11-28T21:49:18.552Z,8.57
2022-11-28T21:51:45.634Z,8.02
2022-11-28T21:54:14.042Z,15.50
2022-11-28T21:56:44.781Z,11.60
2022-11-28T21:59:11.918Z,7.57
2022-11-28T22:01:41.432Z,8.38
2022-11-28T22:04:10.992Z,7.35
2022-11-28T22:06:43.601Z,11.45
2022-11-28T22:09:12.014Z,9.45
2022-11-28T22:11:39.672Z,10.43
2022-11-28T22:14:07.014Z,9.27
2022-11-28T22:16:34.015Z,9.57
2022-11-28T22:19:01.371Z,9.98
2022-11-28T22:24:18.554Z,7.47
2022-11-28T22:29:12.908Z,9.82
2022-11-28T22:31:41.860Z,8.30
2022-11-28T22:34:10.548Z,8.32
2022-11-28T22:36:39.401Z,8.50
2022-11-28T22:39:06.474Z,7.45
2022-11-28T22:41:33.414Z,9.05
2022-11-28T22:44:01.751Z,8.23
2022-11-28T22:46:31.469Z,7.55
2022-11-28T22:49:00.728Z,7.32
2022-11-28T22:51:28.935Z,9.02
2022-11-28T22:53:57.211Z,8.52
2022-11-28T22:56:26.966Z,11.25
2022-11-28T22:58:53.747Z,9.50
2022-11-28T23:01:22.602Z,9.52
2022-11-28T23:03:50.019Z,8.88
2022-11-28T23:06:20.013Z,10.20
2022-11-28T23:08:51.659Z,7.30
2022-11-28T23:11:23.670Z,11.20
2022-11-28T23:13:50.769Z,7.63
2022-11-28T23:16:23.133Z,8.82
2022-11-28T23:18:51.937Z,8.40
2022-11-28T23:21:19.445Z,8.90
2022-11-28T23:23:46.507Z,7.85
2022-11-28T23:26:15.428Z,11.43
2022-11-28T23:28:42.457Z,8.75
2022-11-28T23:31:16.423Z,9.18
2022-11-28T23:33:43.862Z,8.65
2022-11-28T23:36:13.056Z,9.50
2022-11-28T23:38:39.713Z,6.43
2022-11-28T23:41:06.435Z,6.82
2022-11-28T23:43:32.971Z,14.10
2022-11-28T23:45:59.519Z,8.27
2022-11-28T23:48:26.128Z,9.63
2022-11-28T23:50:52.744Z,9.18
2022-11-28T23:53:19.343Z,8.50
2022-11-28T23:55:45.850Z,7.88
2022-11-28T23:58:12.368Z,9.45
